createdAt,value
2023-03-12T00:02:24.120Z,14.70
2023-03-12T00:04:55.198Z,14.90
2023-03-12T00:07:43.908Z,14.95
2023-03-12T00:10:29.218Z,15.10
2023-03-12T00:12:59.099Z,15.02
2023-03-12T00:15:41.009Z,15.10
2023-03-12T00:18:07.901Z,14.96
2023-03-12T00:20:59.450Z,15.00
2023-03-12T00:23:35.357Z,14.65
2023-03-12T00:26:18.565Z,14.05
2023-03-12T00:28:45.834Z,14.27
2023-03-12T00:31:24.656Z,14.46
2023-03-12T00:34:01.764Z,14.15
2023-03-12T00:37:05.991Z,13.91
2023-03-12T00:39:40.063Z,14.34
2023-03-12T00:42:16.250Z,14.37
2023-03-12T00:44:44.415Z,14.75
2023-03-12T00:47:11.707Z,14.37
2023-03-12T00:49:40.993Z,14.42
2023-03-12T00:52:17.201Z,14.71
2023-03-12T00:54:44.190Z,14.91
2023-03-12T00:57:21.374Z,14.21
2023-03-12T00:59:55.554Z,14.47
2023-03-12T01:02:35.861Z,14.77
2023-03-12T01:05:02.985Z,14.49
2023-03-12T01:07:29.913Z,13.97
2023-03-12T01:09:59.813Z,13.79
2023-03-12T01:12:56.476Z,13.44
2023-03-12T01:15:56.586Z,13.33
2023-03-12T01:18:32.249Z,12.68
2023-03-12T01:21:01.932Z,12.45
2023-03-12T01:23:40.663Z,12.15
2023-03-12T01:26:38.860Z,11.94
2023-03-12T01:29:05.844Z,11.92
2023-03-12T01:31:41.479Z,11.96
2023-03-12T01:34:11.587Z,11.96
2023-03-12T01:36:57.459Z,12.12
2023-03-12T01:39:26.328Z,12.08
2023-03-12T01:41:56.821Z,12.02
2023-03-12T01:44:31.391Z,12.27
2023-03-12T01:47:01.097Z,12.60
2023-03-12T01:49:35.914Z,12.91
2023-03-12T01:52:28.296Z,12.98
2023-03-12T01:55:04.028Z,12.67
2023-03-12T01:57:43.736Z,12.30
2023-03-12T02:00:26.113Z,12.37
2023-03-12T02:02:58.925Z,12.05
2023-03-12T02:05:45.744Z,12.33
2023-03-12T02:08:17.919Z,12.67
2023-03-12T02:10:48.074Z,12.57
2023-03-12T02:13:20.984Z,12.56
2023-03-12T02:15:48.328Z,12.59
2023-03-12T02:18:19.688Z,12.42
2023-03-12T02:21:18.549Z,12.55
2023-03-12T02:24:02.416Z,12.68
2023-03-12T02:26:31.267Z,12.96
2023-03-12T02:29:01.219Z,13.17
2023-03-12T02:31:37.740Z,13.04
2023-03-12T02:34:05.110Z,12.90
2023-03-12T02:36:36.383Z,12.70
2023-03-12T02:39:04.406Z,12.61
2023-03-12T02:41:42.888Z,12.80
2023-03-12T02:44:24.337Z,12.46
2023-03-12T02:47:01.722Z,12.16
2023-03-12T02:49:31.790Z,12.49
2023-03-12T02:52:03.165Z,12.86
2023-03-12T02:54:31.123Z,12.96
2023-03-12T02:57:03.133Z,12.82
2023-03-12T02:59:30.068Z,13.09
2023-03-12T03:01:59.573Z,12.93
2023-03-12T03:04:28.355Z,12.63
2023-03-12T03:06:55.640Z,12.75
2023-03-12T03:09:22.668Z,12.48
2023-03-12T03:11:51.510Z,12.02
2023-03-12T03:14:24.820Z,11.73
2023-03-12T03:16:51.781Z,11.78
2023-03-12T03:19:19.194Z,11.64
2023-03-12T03:21:58.756Z,11.83
2023-03-12T03:24:25.659Z,11.68
2023-03-12T03:26:58.178Z,11.79
2023-03-12T03:29:40.649Z,11.38
2023-03-12T03:32:12.520Z,11.55
2023-03-12T03:34:40.259Z,11.60
2023-03-12T03:37:20.057Z,11.72
2023-03-12T03:39:46.935Z,11.72
2023-03-12T03:42:17.712Z,11.56
2023-03-12T03:44:44.705Z,11.55
2023-03-12T03:47:17.665Z,12.17
2023-03-12T03:50:10.644Z,11.95
2023-03-12T03:52:37.833Z,11.82
2023-03-12T03:55:05.596Z,11.68
2023-03-12T03:57:32.552Z,11.59
2023-03-12T04:00:01.552Z,11.62
2023-03-12T04:02:30.387Z,12.63
2023-03-12T04:05:03.518Z,12.48
2023-03-12T04:07:31.389Z,12.19
2023-03-12T04:09:58.420Z,13.01
2023-03-12T04:12:26.260Z,12.80
2023-03-12T04:14:53.385Z,12.69
2023-03-12T04:17:26.084Z,12.75
2023-03-12T04:20:07.649Z,13.60
2023-03-12T04:22:44.251Z,12.74
2023-03-12T04:25:21.518Z,12.28
2023-03-12T04:27:50.280Z,12.08
2023-03-12T04:30:26.647Z,12.17
2023-03-12T04:33:04.823Z,11.95
2023-03-12T04:35:31.924Z,12.10
2023-03-12T04:38:03.477Z,12.23
2023-03-12T04:40:37.401Z,12.52
2023-03-12T04:43:06.686Z,12.42
2023-03-12T04:45:33.582Z,12.41
2023-03-12T04:48:00.445Z,12.55
2023-03-12T04:50:41.653Z,13.18
2023-03-12T04:53:11.720Z,12.71
2023-03-12T04:55:42.985Z,12.36
2023-03-12T04:58:13.536Z,12.31
2023-03-12T05:00:41.481Z,12.40
2023-03-12T05:03:12.541Z,12.30
2023-03-12T05:05:53.789Z,11.86
2023-03-12T05:08:20.716Z,11.54
2023-03-12T05:10:47.741Z,11.52
2023-03-12T05:13:23.124Z,11.42
2023-03-12T05:15:51.010Z,11.37
2023-03-12T05:18:21.723Z,12.00
2023-03-12T05:21:11.763Z,12.37
2023-03-12T05:23:42.762Z,13.02
2023-03-12T05:26:37.482Z,13.61
2023-03-12T05:29:05.383Z,13.22
2023-03-12T05:31:35.561Z,13.56
2023-03-12T05:34:03.550Z,13.84
2023-03-12T05:36:34.032Z,13.19
2023-03-12T05:39:00.942Z,13.19
2023-03-12T05:41:34.722Z,13.32
2023-03-12T05:44:01.734Z,13.01
2023-03-12T05:46:34.742Z,13.05
2023-03-12T05:49:01.647Z,13.03
2023-03-12T05:51:28.547Z,13.52
2023-03-12T05:53:55.475Z,13.94
2023-03-12T05:56:39.198Z,13.84
2023-03-12T05:59:06.544Z,13.82
2023-03-12T06:01:33.811Z,13.30
2023-03-12T06:04:00.776Z,13.49
2023-03-12T06:06:38.923Z,13.69
2023-03-12T06:09:07.963Z,14.34
2023-03-12T06:11:35.250Z,13.14
2023-03-12T06:14:14.975Z,12.61
2023-03-12T06:16:42.007Z,12.23
2023-03-12T06:19:20.510Z,12.42
2023-03-12T06:21:52.585Z,13.30
2023-03-12T06:24:30.282Z,13.75
2023-03-12T06:26:57.069Z,13.51
2023-03-12T06:29:23.888Z,12.98
2023-03-12T06:31:56.387Z,13.33
2023-03-12T06:34:25.090Z,13.70
2023-03-12T06:36:55.036Z,13.20
2023-03-12T06:39:21.965Z,13.81
2023-03-12T06:41:55.085Z,13.81
2023-03-12T06:44:22.027Z,13.42
2023-03-12T06:46:52.507Z,12.89
2023-03-12T06:49:19.806Z,12.89
2023-03-12T06:51:47.232Z,13.52
2023-03-12T06:54:14.332Z,13.53
2023-03-12T06:56:48.611Z,13.70
2023-03-12T06:59:25.260Z,13.40
2023-03-12T07:01:53.971Z,13.28
2023-03-12T07:04:20.970Z,12.95
2023-03-12T07:06:51.518Z,13.39
2023-03-12T07:09:19.166Z,14.03
2023-03-12T07:11:48.231Z,13.35
2023-03-12T07:14:15.247Z,13.71
2023-03-12T07:16:42.098Z,13.37
2023-03-12T07:19:08.905Z,13.70
2023-03-12T07:21:35.832Z,13.92
2023-03-12T07:24:09.029Z,14.06
2023-03-12T07:26:36.006Z,13.39
2023-03-12T07:29:09.312Z,13.79
2023-03-12T07:31:36.281Z,14.32
2023-03-12T07:34:11.649Z,14.22
2023-03-12T07:36:45.632Z,13.85
2023-03-12T07:39:21.659Z,13.97
2023-03-12T07:41:51.128Z,14.28
2023-03-12T07:44:18.013Z,14.61
2023-03-12T07:46:50.868Z,14.45
2023-03-12T07:49:26.982Z,14.09
2023-03-12T07:51:59.851Z,14.30
2023-03-12T07:54:30.886Z,14.36
2023-03-12T07:57:07.211Z,14.67
2023-03-12T07:59:34.494Z,14.60
2023-03-12T08:02:04.318Z,14.68
2023-03-12T08:04:34.230Z,15.10
2023-03-12T08:07:03.474Z,14.48
2023-03-12T08:09:30.506Z,14.60
2023-03-12T08:11:57.377Z,14.39
2023-03-12T08:14:32.405Z,14.70
2023-03-12T08:17:10.209Z,14.66
2023-03-12T08:19:37.613Z,14.88
2023-03-12T08:22:04.473Z,14.97
2023-03-12T08:24:36.137Z,14.78
2023-03-12T08:27:03.262Z,14.58
2023-03-12T08:29:30.122Z,14.37
2023-03-12T08:32:04.877Z,14.11
2023-03-12T08:34:45.658Z,14.30
2023-03-12T08:37:20.346Z,14.61
2023-03-12T08:39:47.291Z,14.75
2023-03-12T08:42:14.984Z,14.79
2023-03-12T08:44:42.005Z,14.45
2023-03-12T08:47:09.119Z,14.23
2023-03-12T08:49:36.290Z,14.40
2023-03-12T08:52:03.257Z,14.29
2023-03-12T08:54:30.585Z,14.73
2023-03-12T08:57:00.747Z,14.79
2023-03-12T08:59:27.754Z,14.58
2023-03-12T09:02:05.392Z,14.84
2023-03-12T09:04:32.484Z,14.96
2023-03-12T09:07:03.402Z,15.11
2023-03-12T09:09:38.145Z,15.21
2023-03-12T09:12:08.471Z,15.17
2023-03-12T09:15:02.496Z,15.28
2023-03-12T09:17:23.665Z,15.35
2023-03-12T09:19:53.620Z,15.49
2023-03-12T09:22:20.954Z,15.55
2023-03-12T09:24:49.425Z,15.52
2023-03-12T09:27:22.532Z,15.32
2023-03-12T09:30:00.637Z,15.17
2023-03-12T09:32:37.062Z,15.26
2023-03-12T09:35:05.841Z,15.34
2023-03-12T09:37:47.689Z,15.38
2023-03-12T09:40:26.835Z,15.30
2023-03-12T09:43:03.088Z,15.24
2023-03-12T09:45:47.504Z,15.32
2023-03-12T09:48:55.674Z,15.61
2023-03-12T09:51:38.151Z,15.62
2023-03-12T09:54:15.762Z,15.73
2023-03-12T09:56:43.297Z,15.65
2023-03-12T09:59:16.710Z,15.41
2023-03-12T10:02:01.719Z,15.48
2023-03-12T10:05:00.136Z,15.81
2023-03-12T10:07:48.803Z,15.97
2023-03-12T10:10:40.380Z,16.03
2023-03-12T10:13:26.207Z,16.09
2023-03-12T10:16:32.307Z,15.96
2023-03-12T10:19:24.217Z,16.02
2023-03-12T10:22:20.468Z,16.33
2023-03-12T10:25:00.885Z,16.06
2023-03-12T10:27:32.878Z,15.99
2023-03-12T10:30:01.490Z,16.08
2023-03-12T10:32:53.048Z,16.24
2023-03-12T10:35:28.643Z,16.19
2023-03-12T10:37:59.304Z,16.24
2023-03-12T10:40:34.437Z,16.29
2023-03-12T10:43:10.700Z,16.46
2023-03-12T10:46:11.629Z,16.22
2023-03-12T10:48:38.802Z,16.26
2023-03-12T10:51:12.872Z,16.65
2023-03-12T10:53:48.160Z,16.76
2023-03-12T10:56:20.301Z,16.79
2023-03-12T10:58:53.239Z,16.83
2023-03-12T11:01:20.090Z,16.82
2023-03-12T11:03:47.950Z,16.80
2023-03-12T11:06:29.909Z,16.87
2023-03-12T11:09:40.025Z,16.87
2023-03-12T11:12:31.142Z,17.08
2023-03-12T11:14:59.638Z,17.00
2023-03-12T11:17:29.941Z,17.07
2023-03-12T11:20:18.221Z,17.09
2023-03-12T11:22:55.823Z,17.08
2023-03-12T11:25:29.595Z,17.29
2023-03-12T11:28:03.663Z,17.36
2023-03-12T11:30:42.073Z,17.35
2023-03-12T11:33:13.804Z,17.41
2023-03-12T11:36:09.731Z,17.36
2023-03-12T11:38:52.022Z,17.40
2023-03-12T11:41:56.425Z,17.48
2023-03-12T11:44:36.548Z,17.31
2023-03-12T11:50:39.292Z,16.77
2023-03-12T11:54:06.057Z,16.71
2023-03-12T11:57:07.305Z,16.72
2023-03-12T12:00:03.233Z,16.61
2023-03-12T12:03:07.478Z,16.66
2023-03-12T12:06:08.244Z,16.85
2023-03-12T12:09:28.234Z,16.89
2023-03-12T12:12:29.190Z,16.93
2023-03-12T12:15:28.505Z,16.87
2023-03-12T12:18:38.807Z,16.79
2023-03-12T12:21:11.368Z,16.72
2023-03-12T12:23:50.353Z,16.85
2023-03-12T12:27:03.714Z,16.88
2023-03-12T12:29:39.333Z,16.70
2023-03-12T12:32:16.331Z,16.43
2023-03-12T12:34:49.225Z,16.54
2023-03-12T12:37:26.029Z,16.45
2023-03-12T12:40:27.364Z,16.44
2023-03-12T12:43:07.003Z,16.33
2023-03-12T12:45:33.909Z,16.33
2023-03-12T12:48:16.676Z,16.26
2023-03-12T12:50:53.516Z,16.43
2023-03-12T12:53:38.441Z,16.33
2023-03-12T12:56:23.187Z,16.43
2023-03-12T12:59:28.521Z,16.38
2023-03-12T13:02:10.825Z,16.30
2023-03-12T13:04:46.744Z,16.42
2023-03-12T13:07:16.466Z,16.57
2023-03-12T13:09:50.261Z,16.56
2023-03-12T13:12:28.459Z,16.45
2023-03-12T13:15:24.203Z,16.47
2023-03-12T13:18:22.446Z,16.34
2023-03-12T13:21:15.352Z,16.26
2023-03-12T13:23:54.162Z,16.23
2023-03-12T13:26:45.277Z,16.29
2023-03-12T13:29:40.020Z,16.18
2023-03-12T13:32:36.450Z,16.23
2023-03-12T13:35:25.677Z,16.25
2023-03-12T13:37:58.407Z,16.24
2023-03-12T13:41:09.594Z,16.32
2023-03-12T13:43:52.008Z,16.37
2023-03-12T13:46:24.626Z,16.32
2023-03-12T13:48:59.773Z,16.40
2023-03-12T13:51:27.626Z,16.36
2023-03-12T13:54:07.044Z,16.35
2023-03-12T13:56:38.643Z,16.24
2023-03-12T13:59:17.111Z,16.26
2023-03-12T14:02:01.730Z,16.20
2023-03-12T14:04:41.776Z,16.09
2023-03-12T14:07:30.948Z,16.27
2023-03-12T14:10:24.072Z,16.24
2023-03-12T14:13:18.419Z,16.18
2023-03-12T14:16:04.649Z,16.28
2023-03-12T14:18:41.514Z,16.32
2023-03-12T14:21:24.750Z,16.25
2023-03-12T14:24:06.456Z,16.07
2023-03-12T14:26:36.976Z,16.17
2023-03-12T14:29:18.279Z,16.30
2023-03-12T14:32:05.640Z,16.25
2023-03-12T14:34:41.633Z,16.22
2023-03-12T14:37:45.819Z,16.27
2023-03-12T14:40:29.097Z,16.43
2023-03-12T14:43:07.077Z,16.28
2023-03-12T14:45:40.358Z,16.16
2023-03-12T14:48:07.247Z,16.03
2023-03-12T14:50:43.308Z,16.09
2023-03-12T14:53:35.294Z,16.06
2023-03-12T14:56:45.319Z,15.96
2023-03-12T14:59:42.447Z,15.92
2023-03-12T15:02:26.060Z,16.01
2023-03-12T15:05:22.598Z,15.98
2023-03-12T15:07:53.152Z,16.12
2023-03-12T15:10:31.148Z,16.13
2023-03-12T15:13:14.143Z,16.17
2023-03-12T15:15:43.744Z,16.11
2023-03-12T15:18:36.329Z,16.18
2023-03-12T15:21:03.579Z,16.24
2023-03-12T15:23:35.910Z,16.22
2023-03-12T15:26:24.002Z,16.10
2023-03-12T15:29:17.325Z,16.11
2023-03-12T15:32:01.734Z,16.10
2023-03-12T15:34:38.909Z,16.07
2023-03-12T15:37:45.807Z,16.01
2023-03-12T15:40:32.463Z,16.01
2023-03-12T15:43:07.852Z,15.98
2023-03-12T15:45:44.183Z,15.96
2023-03-12T15:48:39.981Z,16.00
2023-03-12T15:57:33.405Z,16.05
2023-03-12T16:03:12.241Z,16.06
2023-03-12T16:05:42.467Z,16.03
2023-03-12T16:08:31.732Z,15.93
2023-03-12T16:11:04.675Z,15.98
2023-03-12T16:13:34.370Z,15.97
2023-03-12T16:16:07.193Z,15.92
2023-03-12T16:19:01.234Z,15.90
2023-03-12T16:21:28.151Z,15.96
2023-03-12T16:23:55.001Z,15.93
2023-03-12T16:29:25.970Z,15.84
2023-03-12T16:32:14.415Z,15.81
2023-03-12T16:34:45.340Z,15.74
2023-03-12T16:37:15.159Z,15.70
2023-03-12T16:39:44.457Z,15.72
2023-03-12T16:42:16.433Z,15.78
2023-03-12T16:47:35.284Z,15.78
2023-03-12T16:50:02.263Z,15.83
2023-03-12T16:52:43.965Z,15.79
2023-03-12T16:55:13.335Z,15.75
2023-03-12T16:57:46.759Z,15.82
2023-03-12T17:05:43.888Z,15.73
2023-03-12T17:08:37.647Z,15.71
2023-03-12T17:11:17.103Z,15.78
2023-03-12T17:13:52.066Z,15.67
2023-03-12T17:16:31.952Z,15.69
2023-03-12T17:19:02.037Z,15.67
2023-03-12T17:21:32.099Z,15.70
2023-03-12T17:23:59.003Z,15.64
2023-03-12T17:26:38.753Z,15.61
2023-03-12T17:29:14.671Z,15.70
2023-03-12T17:31:47.550Z,15.60
2023-03-12T17:34:17.973Z,15.57
2023-03-12T17:37:13.443Z,15.52
2023-03-12T17:39:50.131Z,15.48
2023-03-12T17:45:07.246Z,15.58
2023-03-12T17:47:42.394Z,15.67
2023-03-12T17:50:14.232Z,15.61
2023-03-12T17:55:24.765Z,15.55
2023-03-12T17:58:07.351Z,15.39
2023-03-12T18:00:41.588Z,15.41
2023-03-12T18:03:17.488Z,15.42
2023-03-12T18:05:44.431Z,15.45
2023-03-12T18:08:14.150Z,15.07
2023-03-12T18:10:43.390Z,15.26
2023-03-12T18:13:19.320Z,15.15
2023-03-12T18:15:57.649Z,15.01
2023-03-12T18:18:30.626Z,15.35
2023-03-12T18:21:00.634Z,15.22
2023-03-12T18:23:36.983Z,15.37
2023-03-12T18:26:15.114Z,15.23
2023-03-12T18:28:42.620Z,15.39
2023-03-12T18:31:30.159Z,15.29
2023-03-12T18:33:58.242Z,15.27
2023-03-12T18:36:28.728Z,15.07
2023-03-12T18:39:12.094Z,15.29
2023-03-12T18:41:41.949Z,15.14
2023-03-12T18:44:17.876Z,15.11
2023-03-12T18:46:44.835Z,15.22
2023-03-12T18:49:21.817Z,15.27
2023-03-12T18:51:58.512Z,15.02
2023-03-12T18:54:27.810Z,15.09
2023-03-12T18:57:01.604Z,15.19
2023-03-12T18:59:37.782Z,15.33
2023-03-12T19:02:07.082Z,15.50
2023-03-12T19:07:19.972Z,15.36
2023-03-12T19:09:47.457Z,15.26
2023-03-12T19:12:15.392Z,15.29
2023-03-12T19:14:42.218Z,14.95
2023-03-12T19:17:12.060Z,14.91
2023-03-12T19:19:39.050Z,14.95
2023-03-12T19:22:05.931Z,15.01
2023-03-12T19:24:32.926Z,14.99
2023-03-12T19:26:59.911Z,15.02
2023-03-12T19:29:34.202Z,15.37
2023-03-12T19:32:04.106Z,15.40
2023-03-12T19:34:31.006Z,15.22
2023-03-12T19:37:07.180Z,15.25
2023-03-12T19:39:34.030Z,15.20
2023-03-12T19:42:04.064Z,15.12
2023-03-12T19:44:39.493Z,14.97
2023-03-12T19:49:51.266Z,14.53
2023-03-12T19:52:22.410Z,14.31
2023-03-12T19:55:03.302Z,14.50
2023-03-12T19:57:43.533Z,14.42
2023-03-12T20:00:12.440Z,14.76
2023-03-12T20:02:40.168Z,14.56
2023-03-12T20:05:10.828Z,14.38
2023-03-12T20:07:44.589Z,13.93
2023-03-12T20:10:11.928Z,13.69
2023-03-12T20:12:48.205Z,13.76
2023-03-12T20:20:46.236Z,14.47
2023-03-12T20:23:31.527Z,14.73
2023-03-12T20:26:10.450Z,14.44
2023-03-12T20:28:47.516Z,14.20
2023-03-12T20:31:21.929Z,14.04
2023-03-12T20:33:48.803Z,14.29
2023-03-12T20:36:15.681Z,14.45
2023-03-12T20:38:49.106Z,14.49
2023-03-12T20:41:25.125Z,14.45
2023-03-12T20:43:59.116Z,14.54
2023-03-12T20:46:29.186Z,14.72
2023-03-12T20:49:08.563Z,14.58
2023-03-12T20:51:41.654Z,14.66
2023-03-12T20:54:11.827Z,14.31
2023-03-12T20:56:43.325Z,14.06
2023-03-12T20:59:13.117Z,13.75
2023-03-12T21:01:51.441Z,13.35
2023-03-12T21:04:21.533Z,13.02
2023-03-12T21:06:50.282Z,12.93
2023-03-12T21:09:17.257Z,13.42
2023-03-12T21:11:45.487Z,13.76
2023-03-12T21:14:47.449Z,13.39
2023-03-12T21:17:14.929Z,12.91
2023-03-12T21:19:42.249Z,12.72
2023-03-12T21:22:15.544Z,13.30
2023-03-12T21:24:48.051Z,13.77
2023-03-12T21:27:21.572Z,13.48
2023-03-12T21:29:49.361Z,13.04
2023-03-12T21:32:42.672Z,13.45
2023-03-12T21:35:15.540Z,13.42
2023-03-12T21:37:51.799Z,13.61
2023-03-12T21:40:18.900Z,13.22
2023-03-12T21:42:47.502Z,13.03
2023-03-12T21:45:14.687Z,13.30
2023-03-12T21:47:43.433Z,13.68
2023-03-12T21:50:13.252Z,13.63
2023-03-12T21:52:50.583Z,13.91
2023-03-12T21:55:17.869Z,14.11
2023-03-12T21:57:48.329Z,13.92
2023-03-12T22:00:17.718Z,13.83
2023-03-12T22:05:35.632Z,13.86
2023-03-12T22:08:02.446Z,14.19
2023-03-12T22:10:29.274Z,13.73
2023-03-12T22:13:02.125Z,14.21
2023-03-12T22:15:50.441Z,14.34
2023-03-12T22:18:19.001Z,13.57
2023-03-12T22:23:32.305Z,11.97
2023-03-12T22:26:05.515Z,11.69
2023-03-12T22:28:36.598Z,11.81
2023-03-12T22:31:10.402Z,12.33
2023-03-12T22:33:37.706Z,12.92
2023-03-12T22:36:12.576Z,13.22
2023-03-12T22:38:39.775Z,13.62
2023-03-12T22:41:30.157Z,14.00
2023-03-12T22:44:02.984Z,14.16
2023-03-12T22:47:08.157Z,13.95
2023-03-12T22:52:16.592Z,13.85
2023-03-12T22:54:52.551Z,12.90
2023-03-12T22:57:22.603Z,12.13
2023-03-12T22:59:49.971Z,11.81
2023-03-12T23:02:24.964Z,11.75
2023-03-12T23:04:56.178Z,11.42
2023-03-12T23:07:23.030Z,11.11
2023-03-12T23:09:52.677Z,11.00
2023-03-12T23:12:19.600Z,10.81
2023-03-12T23:14:49.472Z,10.82
2023-03-12T23:17:18.757Z,10.74
2023-03-12T23:19:48.832Z,10.69
2023-03-12T23:22:19.319Z,10.63
2023-03-12T23:24:52.214Z,10.65
2023-03-12T23:27:25.272Z,10.64
2023-03-12T23:29:55.186Z,10.59
2023-03-12T23:32:24.937Z,10.72
2023-03-12T23:35:18.182Z,10.65
2023-03-12T23:37:45.157Z,10.57
2023-03-12T23:40:18.508Z,10.83
2023-03-12T23:43:08.176Z,10.72
2023-03-12T23:45:35.422Z,10.68
2023-03-12T23:48:05.984Z,10.71
2023-03-12T23:50:38.743Z,10.81
2023-03-12T23:53:05.655Z,10.90
2023-03-12T23:55:43.061Z,10.83
2023-03-12T23:58:18.808Z,10.72
